Time;durP1;ratioP1;P1;durP2;ratioP2;P2;SDS_P1;SDS_P2;PMS_P1;PMS_P2;Temp;Humidity;BMP_temperature;BMP_pressure;BME280_temperature;BME280_humidity;BME280_pressure;Samples;Min_cycle;Max_cycle;Signal;HPM_P1;HPM_P2
2023/05/17 00:00:31;;;;;;;8.63;3.95;;;10.60;99.90;;;;;;5093715;28;20189;-67
2023/05/17 00:02:59;;;;;;;6.55;4.00;;;10.60;99.90;;;;;;5095265;28;20686;-67
2023/05/17 00:05:31;;;;;;;6.00;4.80;;;10.60;99.90;;;;;;5094806;28;20555;-67
2023/05/17 00:07:58;;;;;;;13.18;4.13;;;10.60;99.90;;;;;;5095102;28;20312;-67
2023/05/17 00:10:30;;;;;;;7.60;3.53;;;10.60;99.90;;;;;;5094558;28;20313;-67
2023/05/17 00:12:57;;;;;;;10.00;4.35;;;10.60;99.90;;;;;;5095157;28;20232;-67
2023/05/17 00:15:26;;;;;;;7.50;3.70;;;10.60;99.90;;;;;;5094046;28;20221;-67
2023/05/17 00:17:54;;;;;;;10.40;4.15;;;10.50;99.90;;;;;;5094192;28;20185;-68
2023/05/17 00:20:24;;;;;;;4.57;3.55;;;10.50;99.90;;;;;;5094747;28;20204;-67
2023/05/17 00:22:53;;;;;;;5.88;3.80;;;10.50;99.90;;;;;;5094949;28;20624;-67
2023/05/17 00:25:20;;;;;;;4.82;3.15;;;10.50;99.90;;;;;;5094337;28;20648;-67
2023/05/17 00:27:48;;;;;;;7.57;4.35;;;10.50;99.90;;;;;;5094680;28;20212;-67
2023/05/17 00:30:15;;;;;;;6.90;4.20;;;10.50;99.90;;;;;;5094221;28;20196;-67
2023/05/17 00:32:45;;;;;;;8.40;3.35;;;10.50;99.90;;;;;;5094553;28;20443;-67
2023/05/17 00:35:14;;;;;;;3.40;2.72;;;10.40;99.90;;;;;;5093907;28;20185;-67
2023/05/17 00:37:46;;;;;;;7.30;3.85;;;10.40;99.90;;;;;;5094363;28;20201;-66
2023/05/17 00:40:15;;;;;;;4.38;3.55;;;10.40;99.90;;;;;;5094072;28;20188;-67
2023/05/17 00:42:42;;;;;;;7.05;4.97;;;10.40;99.90;;;;;;5094428;28;20199;-67
2023/05/17 00:45:10;;;;;;;6.60;4.88;;;10.40;99.90;;;;;;5094032;28;20215;-67
2023/05/17 00:47:41;;;;;;;6.97;4.72;;;10.30;99.90;;;;;;5094268;28;20185;-67
2023/05/17 00:50:11;;;;;;;6.97;3.40;;;10.30;99.90;;;;;;5094209;28;20197;-67
2023/05/17 00:52:39;;;;;;;4.43;3.53;;;10.30;99.90;;;;;;5094291;28;20223;-67
2023/05/17 00:55:12;;;;;;;6.10;3.47;;;10.30;99.90;;;;;;5094093;28;20202;-67
2023/05/17 00:57:39;;;;;;;5.85;3.90;;;10.30;99.90;;;;;;5094229;28;20250;-67
2023/05/17 01:00:09;;;;;;;5.60;3.28;;;10.30;99.90;;;;;;5094313;28;20217;-66
2023/05/17 01:02:37;;;;;;;6.05;3.35;;;10.20;99.90;;;;;;5094325;28;20196;-67
2023/05/17 01:05:10;;;;;;;5.68;3.22;;;10.20;99.90;;;;;;5093447;28;20182;-67
2023/05/17 01:07:37;;;;;;;4.00;3.13;;;10.20;99.90;;;;;;5093236;28;20196;-67
2023/05/17 01:10:10;;;;;;;4.35;3.55;;;10.20;99.90;;;;;;5094187;28;20193;-67
2023/05/17 01:12:50;;;;;;;7.05;3.53;;;10.20;99.90;;;;;;5093441;28;20193;-67
2023/05/17 01:15:23;;;;;;;4.28;3.05;;;10.20;99.10;;;;;;5093851;28;20227;-67
2023/05/17 01:18:00;;;;;;;6.90;3.97;;;10.20;98.70;;;;;;5093018;28;20181;-67
2023/05/17 01:20:31;;;;;;;6.20;3.83;;;10.10;99.00;;;;;;5093600;28;20267;-67
2023/05/17 01:23:11;;;;;;;7.95;2.85;;;10.10;99.20;;;;;;5093382;28;20560;-67
2023/05/17 01:25:54;;;;;;;6.55;3.08;;;10.10;99.20;;;;;;5093566;28;20193;-67
2023/05/17 01:28:24;;;;;;;6.22;3.00;;;10.10;99.30;;;;;;5093337;28;20278;-67
2023/05/17 01:30:54;;;;;;;10.98;3.55;;;10.00;99.50;;;;;;5093406;28;20284;-68
2023/05/17 01:33:22;;;;;;;8.43;3.65;;;10.00;99.80;;;;;;5093120;28;20284;-67
2023/05/17 01:35:49;;;;;;;9.18;3.45;;;10.00;99.90;;;;;;5093514;28;20272;-67
2023/05/17 01:38:16;;;;;;;9.30;3.53;;;10.00;99.90;;;;;;5092631;28;20188;-67
2023/05/17 01:40:49;;;;;;;7.38;2.70;;;10.00;99.90;;;;;;5093429;28;20188;-67
2023/05/17 01:43:26;;;;;;;5.03;2.95;;;10.00;99.90;;;;;;5093147;28;20191;-67
2023/05/17 01:46:05;;;;;;;6.05;2.92;;;10.00;99.80;;;;;;5092977;28;20193;-67
2023/05/17 01:48:38;;;;;;;4.45;2.40;;;10.00;99.50;;;;;;5092850;28;20638;-67
2023/05/17 01:51:05;;;;;;;8.20;3.40;;;9.90;99.70;;;;;;5093274;28;20189;-67
2023/05/17 01:53:40;;;;;;;5.25;2.65;;;9.90;99.90;;;;;;5092645;28;20189;-67
2023/05/17 01:56:10;;;;;;;3.30;2.45;;;9.90;99.90;;;;;;5093499;28;20279;-67
2023/05/17 01:58:45;;;;;;;5.35;4.35;;;9.90;99.90;;;;;;5092400;28;20185;-67
2023/05/17 02:01:15;;;;;;;5.35;2.75;;;9.90;99.70;;;;;;5093231;28;20192;-67
2023/05/17 02:03:43;;;;;;;5.75;3.20;;;9.90;99.80;;;;;;5092756;28;20551;-67
2023/05/17 02:06:10;;;;;;;7.13;3.15;;;9.90;99.90;;;;;;5092970;28;20639;-67
2023/05/17 02:08:37;;;;;;;6.75;3.53;;;10.00;99.50;;;;;;5092352;28;20296;-67
2023/05/17 02:11:05;;;;;;;4.57;2.75;;;9.90;99.90;;;;;;5092937;28;20193;-68
2023/05/17 02:13:33;;;;;;;5.85;3.88;;;9.90;99.90;;;;;;5092724;28;20607;-67
2023/05/17 02:16:02;;;;;;;4.50;3.00;;;9.90;99.90;;;;;;5092901;28;20699;-67
2023/05/17 02:18:36;;;;;;;5.20;3.10;;;9.90;99.90;;;;;;5092761;28;20185;-67
2023/05/17 02:21:05;;;;;;;8.82;3.28;;;9.90;99.90;;;;;;5092808;28;20199;-67
2023/05/17 02:23:33;;;;;;;5.18;3.85;;;9.90;99.90;;;;;;5091831;28;20209;-68
2023/05/17 02:26:00;;;;;;;5.65;2.97;;;9.90;99.90;;;;;;5092617;28;20273;-67
2023/05/17 02:28:28;;;;;;;4.57;3.13;;;9.90;99.90;;;;;;5092355;28;20295;-67
2023/05/17 02:30:55;;;;;;;6.25;3.58;;;9.90;99.90;;;;;;5092064;28;20208;-67
2023/05/17 02:33:24;;;;;;;5.38;3.88;;;9.90;99.90;;;;;;5092211;28;20189;-67
2023/05/17 02:35:51;;;;;;;7.55;3.47;;;9.90;99.90;;;;;;5092628;28;20674;-67
2023/05/17 02:38:19;;;;;;;7.40;3.78;;;9.90;99.90;;;;;;5092338;28;20193;-68
2023/05/17 02:40:46;;;;;;;5.70;3.40;;;9.80;99.90;;;;;;5092714;28;20283;-67
2023/05/17 02:43:14;;;;;;;5.95;3.15;;;9.80;99.90;;;;;;5092046;28;20192;-67
2023/05/17 02:45:43;;;;;;;8.02;3.38;;;9.90;99.90;;;;;;5092775;28;20234;-67
2023/05/17 02:48:10;;;;;;;5.70;3.55;;;9.90;99.90;;;;;;5091990;28;20192;-67
2023/05/17 02:50:40;;;;;;;6.03;3.60;;;9.90;99.90;;;;;;5092054;28;20254;-67
2023/05/17 02:53:07;;;;;;;5.15;3.63;;;9.80;99.90;;;;;;5092459;28;20189;-67
2023/05/17 02:55:35;;;;;;;6.60;3.83;;;9.80;99.90;;;;;;5092008;28;20246;-67
2023/05/17 02:58:03;;;;;;;6.45;3.10;;;9.80;99.90;;;;;;5092120;28;20193;-68
2023/05/17 03:00:33;;;;;;;5.05;3.33;;;9.80;99.90;;;;;;5072423;28;20554;-67
2023/05/17 03:03:00;;;;;;;6.72;3.30;;;9.80;99.90;;;;;;5072689;28;20610;-67
2023/05/17 03:05:28;;;;;;;3.75;2.90;;;9.80;99.90;;;;;;5092119;28;20190;-67
2023/05/17 03:07:56;;;;;;;5.20;4.70;;;9.80;99.90;;;;;;5092223;28;20248;-67
2023/05/17 03:10:23;;;;;;;14.73;3.53;;;9.80;99.90;;;;;;5091690;28;20217;-67
2023/05/17 03:12:51;;;;;;;5.75;3.95;;;9.80;99.90;;;;;;5092552;28;20192;-67
2023/05/17 03:15:18;;;;;;;3.85;3.20;;;9.70;99.90;;;;;;5091944;28;20628;-67
2023/05/17 03:17:48;;;;;;;5.25;4.35;;;9.70;99.90;;;;;;5092285;28;20239;-67
2023/05/17 03:20:16;;;;;;;5.28;3.80;;;9.70;99.90;;;;;;5091615;28;20188;-67
2023/05/17 03:22:43;;;;;;;7.10;4.03;;;9.70;99.90;;;;;;5091939;28;20246;-67
2023/05/17 03:25:12;;;;;;;6.88;3.83;;;9.70;99.90;;;;;;5091856;28;20185;-67
2023/05/17 03:27:39;;;;;;;9.05;3.83;;;9.70;99.90;;;;;;5092485;28;20247;-67
2023/05/17 03:30:07;;;;;;;8.38;4.00;;;9.70;99.90;;;;;;5091667;28;20221;-67
2023/05/17 03:32:34;;;;;;;5.60;3.08;;;9.70;99.90;;;;;;5092253;28;20656;-67
2023/05/17 03:35:05;;;;;;;6.63;4.55;;;9.70;99.90;;;;;;5092366;28;20185;-67
2023/05/17 03:37:33;;;;;;;10.20;3.97;;;9.70;99.90;;;;;;5095963;28;20242;-67
2023/05/17 03:40:00;;;;;;;9.10;3.60;;;9.70;99.90;;;;;;5095121;28;20212;-67
2023/05/17 03:42:29;;;;;;;7.10;3.67;;;9.70;99.90;;;;;;5095414;28;20195;-68
2023/05/17 03:44:56;;;;;;;5.72;3.13;;;9.60;99.90;;;;;;5094601;28;20189;-68
2023/05/17 03:47:24;;;;;;;5.85;3.45;;;9.60;99.90;;;;;;5095428;28;20593;-67
2023/05/17 03:49:55;;;;;;;8.27;3.53;;;9.60;99.90;;;;;;5094967;28;20220;-67
2023/05/17 03:52:23;;;;;;;9.88;3.72;;;9.60;99.90;;;;;;5095473;28;20201;-67
2023/05/17 03:54:55;;;;;;;5.95;3.47;;;9.60;99.90;;;;;;5095064;28;20234;-67
2023/05/17 03:57:22;;;;;;;5.90;4.50;;;9.60;99.90;;;;;;5094790;28;20193;-67
2023/05/17 03:59:51;;;;;;;4.93;3.58;;;9.60;99.90;;;;;;5094780;28;20189;-68
2023/05/17 04:02:19;;;;;;;7.47;4.20;;;9.60;99.90;;;;;;5094183;28;20204;-67
2023/05/17 04:04:49;;;;;;;6.80;3.47;;;9.60;99.90;;;;;;5095442;28;20211;-67
2023/05/17 04:07:17;;;;;;;11.48;4.00;;;9.60;99.90;;;;;;5094307;28;20231;-67
2023/05/17 04:09:45;;;;;;;6.80;3.67;;;9.60;99.90;;;;;;5095296;28;20216;-67
2023/05/17 04:12:12;;;;;;;6.60;3.15;;;9.60;99.90;;;;;;5094725;28;20189;-67
2023/05/17 04:14:40;;;;;;;9.45;4.15;;;9.60;99.90;;;;;;5094833;28;20220;-67
2023/05/17 04:17:11;;;;;;;4.13;3.35;;;9.60;99.90;;;;;;5094199;28;20268;-67
2023/05/17 04:19:38;;;;;;;14.27;3.80;;;9.60;99.90;;;;;;5095291;28;20216;-67
2023/05/17 04:22:06;;;;;;;5.15;3.70;;;9.60;99.90;;;;;;5094679;28;20255;-67
2023/05/17 04:24:35;;;;;;;9.63;3.95;;;9.60;99.90;;;;;;5095085;28;20251;-68
2023/05/17 04:27:04;;;;;;;6.80;3.10;;;9.60;99.90;;;;;;5094876;28;20189;-68
2023/05/17 04:29:31;;;;;;;5.35;2.95;;;9.70;99.90;;;;;;5095073;28;20256;-68
2023/05/17 04:31:59;;;;;;;6.70;3.80;;;9.70;99.90;;;;;;5094129;28;20219;-68
2023/05/17 04:34:30;;;;;;;6.93;2.75;;;9.70;99.90;;;;;;5093636;28;20193;-68
2023/05/17 04:36:58;;;;;;;5.88;3.70;;;9.70;99.90;;;;;;5094666;28;20289;-68
2023/05/17 04:39:25;;;;;;;4.75;3.00;;;9.80;99.90;;;;;;5089163;28;20196;-68
2023/05/17 04:41:52;;;;;;;4.93;3.42;;;9.80;99.90;;;;;;5093609;28;20181;-68
2023/05/17 04:44:22;;;;;;;7.25;3.08;;;9.80;99.90;;;;;;5092920;28;20224;-68
2023/05/17 04:46:50;;;;;;;5.25;3.00;;;9.90;99.90;;;;;;5093680;28;20264;-68
2023/05/17 04:49:18;;;;;;;7.10;3.05;;;9.90;99.90;;;;;;5093230;28;20219;-68
2023/05/17 04:51:46;;;;;;;4.15;2.42;;;9.90;99.60;;;;;;5093427;28;20666;-68
2023/05/17 04:54:17;;;;;;;3.38;2.67;;;9.90;99.00;;;;;;5093184;28;20178;-69
2023/05/17 04:56:44;;;;;;;6.85;3.15;;;9.90;98.80;;;;;;5093786;28;20185;-67
2023/05/17 04:59:12;;;;;;;5.63;3.35;;;10.00;98.50;;;;;;5091788;28;20196;-68
2023/05/17 05:01:39;;;;;;;7.22;3.42;;;10.00;98.70;;;;;;5093085;28;20550;-68
2023/05/17 05:04:07;;;;;;;4.32;2.80;;;10.00;98.80;;;;;;5092947;28;20185;-68
2023/05/17 05:06:38;;;;;;;2.90;2.10;;;10.10;98.90;;;;;;5093349;28;20189;-67
2023/05/17 05:09:06;;;;;;;3.15;2.60;;;10.10;98.80;;;;;;5092945;28;20234;-67
2023/05/17 05:11:34;;;;;;;4.63;3.00;;;10.10;98.80;;;;;;5072917;28;20244;-67
2023/05/17 05:14:01;;;;;;;5.15;2.83;;;10.20;99.00;;;;;;5073308;28;20252;-67
2023/05/17 05:16:28;;;;;;;4.78;3.17;;;10.20;99.00;;;;;;5092092;28;20213;-68
2023/05/17 05:18:55;;;;;;;5.07;2.15;;;10.30;98.90;;;;;;5093207;28;20208;-67
2023/05/17 05:21:22;;;;;;;4.47;2.40;;;10.30;98.40;;;;;;5092199;28;20189;-68
2023/05/17 05:23:50;;;;;;;5.10;2.85;;;10.30;97.80;;;;;;5090026;28;20648;-68
2023/05/17 05:26:18;;;;;;;4.60;2.70;;;10.40;97.50;;;;;;5091715;28;20215;-68
2023/05/17 05:28:45;;;;;;;5.25;2.45;;;10.40;97.60;;;;;;5092829;28;20227;-67
2023/05/17 05:31:12;;;;;;;4.70;2.30;;;10.50;97.70;;;;;;5093079;28;20225;-68
2023/05/17 05:33:39;;;;;;;7.45;2.88;;;10.50;97.40;;;;;;5093087;28;20275;-68
2023/05/17 05:36:07;;;;;;;4.13;2.17;;;10.50;97.40;;;;;;5093270;28;20288;-68
2023/05/17 05:38:35;;;;;;;8.07;2.50;;;10.60;97.10;;;;;;5093362;28;20228;-68
2023/05/17 05:41:02;;;;;;;12.03;2.27;;;10.60;96.40;;;;;;5092009;28;20234;-68
2023/05/17 05:43:30;;;;;;;8.30;2.28;;;10.60;96.00;;;;;;5092585;28;20479;-68
2023/05/17 05:45:57;;;;;;;3.92;2.05;;;10.60;95.80;;;;;;5093006;28;20238;-67
2023/05/17 05:48:24;;;;;;;5.28;2.30;;;10.60;96.00;;;;;;5092801;28;20280;-68
2023/05/17 05:50:51;;;;;;;6.30;2.40;;;10.60;95.70;;;;;;5093046;28;20216;-68
2023/05/17 05:53:18;;;;;;;5.35;1.98;;;10.60;95.70;;;;;;5091325;28;20188;-68
2023/05/17 05:55:45;;;;;;;11.40;2.33;;;10.60;95.50;;;;;;5091613;28;20185;-67
2023/05/17 05:58:12;;;;;;;5.15;2.75;;;10.60;95.10;;;;;;5091678;28;20189;-67
2023/05/17 06:00:41;;;;;;;6.80;2.60;;;10.70;94.60;;;;;;5092476;28;20207;-68
2023/05/17 06:03:08;;;;;;;8.73;1.75;;;10.70;94.70;;;;;;5093464;28;20594;-67
2023/05/17 06:05:37;;;;;;;6.90;2.30;;;10.70;94.40;;;;;;5093496;28;20277;-67
2023/05/17 06:08:04;;;;;;;5.85;2.53;;;10.60;94.20;;;;;;5093408;28;20423;-67
2023/05/17 06:10:32;;;;;;;3.78;1.70;;;10.60;94.40;;;;;;5093442;28;20223;-68
2023/05/17 06:12:59;;;;;;;5.18;2.35;;;10.50;94.60;;;;;;5093454;28;20193;-67
2023/05/17 06:15:27;;;;;;;8.25;2.33;;;10.50;94.60;;;;;;5092747;28;20266;-68
2023/05/17 06:17:56;;;;;;;6.45;2.50;;;10.50;94.40;;;;;;5093374;28;20284;-68
2023/05/17 06:20:24;;;;;;;6.00;2.45;;;10.50;94.30;;;;;;5093041;28;20193;-67
2023/05/17 06:22:51;;;;;;;4.00;2.55;;;10.50;94.40;;;;;;5093027;28;20246;-68
2023/05/17 06:25:18;;;;;;;4.82;2.35;;;10.50;94.50;;;;;;5093447;28;20189;-67
2023/05/17 06:27:45;;;;;;;6.97;1.83;;;10.50;94.20;;;;;;5093320;28;20225;-67
2023/05/17 06:30:13;;;;;;;6.07;3.00;;;10.50;94.30;;;;;;5093122;28;20303;-67
2023/05/17 06:32:40;;;;;;;5.55;2.13;;;10.50;94.40;;;;;;5093081;28;20282;-68
2023/05/17 06:35:10;;;;;;;3.10;1.65;;;10.50;94.30;;;;;;5093119;28;20220;-67
2023/05/17 06:37:37;;;;;;;5.50;1.75;;;10.50;94.00;;;;;;5093221;28;20644;-67
2023/05/17 06:40:06;;;;;;;3.50;2.33;;;10.60;94.00;;;;;;5092660;28;20189;-67
2023/05/17 06:42:33;;;;;;;5.40;2.00;;;10.60;94.00;;;;;;5093210;28;20191;-67
2023/05/17 06:45:00;;;;;;;3.95;1.90;;;10.70;93.60;;;;;;5093250;28;20188;-67
2023/05/17 06:47:27;;;;;;;7.68;2.70;;;10.70;93.60;;;;;;5092797;28;20249;-67
2023/05/17 06:49:54;;;;;;;4.85;2.00;;;10.70;93.10;;;;;;5092666;28;20700;-67
2023/05/17 06:52:26;;;;;;;7.97;2.47;;;10.80;93.30;;;;;;5092978;28;20638;-68
2023/05/17 06:54:53;;;;;;;6.07;2.30;;;10.90;93.40;;;;;;5092849;28;20193;-67
2023/05/17 06:57:20;;;;;;;4.75;1.98;;;10.90;93.30;;;;;;5092817;28;20694;-68
2023/05/17 06:59:48;;;;;;;4.28;2.40;;;11.00;93.10;;;;;;5085815;28;20224;-67
2023/05/17 07:02:15;;;;;;;4.65;1.80;;;11.00;92.40;;;;;;5087760;28;20241;-67
2023/05/17 07:04:42;;;;;;;4.93;2.40;;;11.00;92.20;;;;;;5081549;28;20220;-67
2023/05/17 07:07:10;;;;;;;3.17;1.80;;;11.00;92.50;;;;;;5086507;28;20281;-67
2023/05/17 07:09:38;;;;;;;3.42;1.90;;;11.10;92.40;;;;;;5089095;28;20607;-67
2023/05/17 07:12:08;;;;;;;5.93;1.80;;;11.10;92.30;;;;;;5092000;28;20288;-67
2023/05/17 07:14:35;;;;;;;4.60;1.80;;;11.00;91.70;;;;;;5087716;28;20301;-67
2023/05/17 07:17:02;;;;;;;7.37;2.70;;;11.10;91.50;;;;;;5091920;28;20417;-67
2023/05/17 07:19:29;;;;;;;3.90;1.77;;;11.10;91.40;;;;;;5091544;28;20785;-67
2023/05/17 07:21:56;;;;;;;5.07;2.30;;;11.20;91.30;;;;;;5088273;28;20501;-67
2023/05/17 07:24:23;;;;;;;4.40;2.40;;;11.10;92.10;;;;;;5087450;28;20471;-67
2023/05/17 07:26:52;;;;;;;5.28;2.92;;;11.20;92.00;;;;;;5087404;28;20541;-67
2023/05/17 07:29:18;;;;;;;5.60;2.40;;;11.30;91.60;;;;;;5091775;28;20197;-67
2023/05/17 07:31:45;;;;;;;4.13;2.05;;;11.30;91.20;;;;;;5091589;28;20486;-67
2023/05/17 07:34:14;;;;;;;3.75;2.00;;;11.30;91.00;;;;;;5091092;28;20232;-67
2023/05/17 07:36:41;;;;;;;5.68;2.55;;;11.30;90.60;;;;;;5089746;28;20289;-67
2023/05/17 07:39:09;;;;;;;3.87;2.40;;;11.30;90.00;;;;;;5088995;28;20233;-67
2023/05/17 07:41:36;;;;;;;5.75;2.55;;;11.30;89.40;;;;;;5091384;28;20478;-67
2023/05/17 07:44:04;;;;;;;7.83;2.13;;;11.30;89.30;;;;;;5090229;28;20196;-67
2023/05/17 07:46:31;;;;;;;5.63;2.67;;;11.30;89.10;;;;;;5088040;28;20474;-67
2023/05/17 07:48:58;;;;;;;3.85;2.20;;;11.40;89.20;;;;;;5091422;28;20196;-67
2023/05/17 07:51:26;;;;;;;3.97;2.10;;;11.40;89.60;;;;;;5090877;28;20252;-67
2023/05/17 07:53:55;;;;;;;6.00;2.37;;;11.50;88.70;;;;;;5088328;28;20282;-67
2023/05/17 07:56:22;;;;;;;3.77;2.53;;;11.60;88.70;;;;;;5090161;28;20440;-67
2023/05/17 07:58:49;;;;;;;5.80;2.10;;;11.70;89.90;;;;;;5088873;28;20431;-67
2023/05/17 08:01:17;;;;;;;3.70;2.40;;;11.90;88.70;;;;;;5088735;28;20440;-67
2023/05/17 08:03:46;;;;;;;3.27;2.10;;;12.00;88.10;;;;;;5090095;28;20435;-67
2023/05/17 08:06:14;;;;;;;7.53;3.07;;;12.00;88.20;;;;;;5089227;28;20524;-68
2023/05/17 08:08:41;;;;;;;7.63;2.80;;;12.10;86.50;;;;;;5088284;28;20447;-67
2023/05/17 08:11:09;;;;;;;4.10;2.40;;;12.30;86.60;;;;;;5090544;28;20477;-67
2023/05/17 08:13:36;;;;;;;4.97;2.33;;;12.40;86.80;;;;;;5087870;28;20782;-67
2023/05/17 08:16:06;;;;;;;7.63;2.77;;;12.60;85.60;;;;;;5090766;28;20510;-68
2023/05/17 08:18:35;;;;;;;5.70;2.10;;;12.60;86.20;;;;;;5089024;28;20496;-67
2023/05/17 08:21:03;;;;;;;7.40;2.80;;;12.70;85.80;;;;;;5085958;28;20434;-67
2023/05/17 08:23:31;;;;;;;4.73;2.83;;;12.80;83.00;;;;;;5090370;28;20439;-67
2023/05/17 08:25:58;;;;;;;5.97;3.67;;;12.90;81.30;;;;;;5087700;28;20846;-67
2023/05/17 08:28:25;;;;;;;4.30;2.00;;;13.10;80.40;;;;;;5089483;28;20475;-67
2023/05/17 08:30:52;;;;;;;4.67;2.40;;;13.10;79.70;;;;;;5090074;28;20972;-67
2023/05/17 08:33:21;;;;;;;4.67;2.87;;;13.20;80.30;;;;;;5090176;28;20929;-67
2023/05/17 08:35:49;;;;;;;5.97;2.70;;;13.30;81.20;;;;;;5089269;28;20472;-67
2023/05/17 08:38:16;;;;;;;5.00;2.50;;;13.40;79.50;;;;;;5090120;28;20483;-67
2023/05/17 08:40:43;;;;;;;7.37;2.30;;;13.50;79.20;;;;;;5089657;28;20800;-67
2023/05/17 08:43:11;;;;;;;5.63;2.07;;;13.70;77.60;;;;;;5089793;28;20439;-67
2023/05/17 08:45:39;;;;;;;6.53;3.10;;;14.00;76.70;;;;;;5089408;28;20521;-67
2023/05/17 08:48:07;;;;;;;5.03;2.30;;;14.20;76.40;;;;;;5085996;28;20435;-67
2023/05/17 08:50:35;;;;;;;4.50;2.40;;;14.40;74.10;;;;;;5089798;28;20577;-67
2023/05/17 08:53:04;;;;;;;7.10;2.80;;;14.60;73.10;;;;;;5087008;28;20814;-66
2023/05/17 08:55:33;;;;;;;8.53;3.50;;;14.60;69.80;;;;;;5088373;28;20440;-67
2023/05/17 08:58:01;;;;;;;2.90;2.20;;;14.70;69.20;;;;;;5090064;28;20514;-67
2023/05/17 09:00:28;;;;;;;3.77;1.83;;;14.70;68.40;;;;;;5087195;28;20437;-67
2023/05/17 09:02:55;;;;;;;9.50;2.10;;;14.90;67.90;;;;;;5087897;28;20447;-67
2023/05/17 09:05:22;;;;;;;3.63;1.97;;;15.10;68.40;;;;;;5089332;28;20443;-67
2023/05/17 09:07:52;;;;;;;6.23;2.40;;;15.30;66.40;;;;;;5088707;28;20467;-67
2023/05/17 09:10:21;;;;;;;4.90;2.10;;;15.40;61.60;;;;;;5086944;28;20518;-67
2023/05/17 09:12:49;;;;;;;9.30;2.67;;;15.50;64.00;;;;;;5088721;28;20971;-67
2023/05/17 09:15:22;;;;;;;5.10;2.20;;;15.70;65.00;;;;;;5088623;28;20468;-67
2023/05/17 09:17:53;;;;;;;4.20;2.27;;;15.90;65.60;;;;;;5089228;28;20438;-67
2023/05/17 09:20:24;;;;;;;4.10;2.20;;;16.10;65.60;;;;;;5089591;28;20516;-67
2023/05/17 09:22:51;;;;;;;3.73;1.93;;;16.20;64.30;;;;;;5088427;28;20779;-67
2023/05/17 09:25:21;;;;;;;6.73;2.90;;;16.20;61.60;;;;;;5085697;28;20443;-66
2023/05/17 09:27:48;;;;;;;10.80;5.13;;;16.00;61.20;;;;;;5088316;28;20509;-67
2023/05/17 09:30:15;;;;;;;7.27;2.57;;;15.80;59.70;;;;;;5088013;28;20534;-66
2023/05/17 09:32:45;;;;;;;5.47;2.03;;;15.50;58.40;;;;;;5084902;28;20448;-67
2023/05/17 09:35:12;;;;;;;4.70;2.60;;;15.30;61.50;;;;;;5091338;28;20450;-67
2023/05/17 09:37:43;;;;;;;6.23;2.30;;;15.20;63.30;;;;;;5088604;28;20937;-67
2023/05/17 09:40:21;;;;;;;6.90;2.17;;;15.10;60.10;;;;;;5089157;28;20439;-67
2023/05/17 09:42:50;;;;;;;2.67;1.90;;;15.00;59.30;;;;;;5085000;28;20532;-67
2023/05/17 09:45:22;;;;;;;3.70;2.50;;;14.90;58.60;;;;;;5086767;28;20917;-67
2023/05/17 09:47:49;;;;;;;5.40;1.80;;;15.00;59.90;;;;;;5084659;28;20431;-67
2023/05/17 09:50:18;;;;;;;6.90;2.33;;;15.00;58.40;;;;;;5088397;28;20447;-67
2023/05/17 09:52:45;;;;;;;7.80;2.57;;;15.00;58.60;;;;;;5083954;28;20492;-67
2023/05/17 09:55:14;;;;;;;4.50;2.20;;;14.90;59.20;;;;;;5086460;28;20786;-67
2023/05/17 09:57:41;;;;;;;4.47;2.60;;;14.90;57.30;;;;;;5088734;28;20466;-67
2023/05/17 10:00:12;;;;;;;4.97;2.30;;;14.90;56.80;;;;;;5088115;28;20442;-67
2023/05/17 10:02:40;;;;;;;6.17;2.30;;;15.00;57.20;;;;;;5088878;28;20439;-67
2023/05/17 10:05:10;;;;;;;4.47;2.40;;;15.20;57.30;;;;;;5093559;28;20530;-67
2023/05/17 10:07:38;;;;;;;3.60;1.73;;;15.40;55.80;;;;;;5093766;28;20435;-67
2023/05/17 10:10:07;;;;;;;4.13;2.13;;;15.80;53.90;;;;;;5093025;28;20489;-67
2023/05/17 10:12:34;;;;;;;7.70;2.33;;;16.10;54.90;;;;;;5093517;28;20483;-67
2023/05/17 10:15:02;;;;;;;7.13;2.57;;;16.40;53.80;;;;;;5093406;28;20475;-67
2023/05/17 10:17:32;;;;;;;4.33;2.27;;;16.60;55.10;;;;;;5089219;28;20501;-67
2023/05/17 10:19:59;;;;;;;12.87;3.80;;;17.00;57.30;;;;;;5092259;28;20443;-67
2023/05/17 10:22:27;;;;;;;5.07;2.30;;;17.40;55.90;;;;;;5092414;28;20443;-68
2023/05/17 10:24:57;;;;;;;4.83;2.33;;;17.80;53.90;;;;;;5092455;28;20479;-67
2023/05/17 10:27:25;;;;;;;7.53;2.10;;;17.90;49.70;;;;;;5092071;28;20526;-67
2023/05/17 10:29:53;;;;;;;5.50;2.40;;;18.00;48.60;;;;;;5092221;28;20783;-67
2023/05/17 10:32:25;;;;;;;3.77;1.93;;;17.60;49.00;;;;;;5092471;28;20521;-67
2023/05/17 10:34:55;;;;;;;5.00;2.13;;;17.90;49.80;;;;;;5092888;28;20439;-67
2023/05/17 10:37:24;;;;;;;6.53;2.70;;;18.10;48.90;;;;;;5093064;28;20432;-67
2023/05/17 10:39:52;;;;;;;6.30;2.50;;;18.10;49.00;;;;;;5092826;28;20431;-67
2023/05/17 10:42:19;;;;;;;5.13;2.13;;;18.20;51.70;;;;;;5093269;28;20435;-67
2023/05/17 10:44:48;;;;;;;2.97;1.93;;;18.60;50.20;;;;;;5094824;28;20445;-67
2023/05/17 10:47:17;;;;;;;7.90;2.27;;;19.00;48.90;;;;;;5097069;28;20435;-67
2023/05/17 10:50:10;;;;;;;9.13;1.70;;;19.30;45.00;;;;;;5097162;28;20937;-67
2023/05/17 10:52:45;;;;;;;6.23;2.37;;;19.40;46.30;;;;;;5097178;28;20746;-67
2023/05/17 10:55:12;;;;;;;5.87;1.60;;;19.70;45.80;;;;;;5097004;28;20434;-67
2023/05/17 10:57:40;;;;;;;7.10;2.03;;;20.00;46.20;;;;;;5097279;28;20436;-68
2023/05/17 11:00:11;;;;;;;5.77;2.20;;;20.20;45.20;;;;;;5096942;28;20443;-68
2023/05/17 11:02:42;;;;;;;5.40;2.10;;;20.10;43.70;;;;;;5096814;28;20739;-68
2023/05/17 11:05:23;;;;;;;4.07;1.90;;;19.80;43.60;;;;;;5096653;28;20431;-68
2023/05/17 11:07:51;;;;;;;6.23;2.10;;;19.50;43.40;;;;;;5096081;28;20907;-67
2023/05/17 11:10:18;;;;;;;3.80;2.00;;;19.30;43.90;;;;;;5096607;28;20435;-67
2023/05/17 11:12:52;;;;;;;5.73;2.30;;;19.10;42.40;;;;;;5096351;28;20478;-68
2023/05/17 11:15:24;;;;;;;5.30;2.00;;;18.90;43.70;;;;;;5096031;28;20502;-68
2023/05/17 11:17:52;;;;;;;7.43;1.80;;;18.60;45.50;;;;;;5096384;28;20488;-67
2023/05/17 11:20:33;;;;;;;3.60;2.00;;;18.20;45.00;;;;;;5096376;28;20430;-67
2023/05/17 11:23:04;;;;;;;5.13;1.90;;;17.80;47.60;;;;;;5096141;28;20439;-68
2023/05/17 11:25:34;;;;;;;3.53;2.10;;;17.50;47.00;;;;;;5096638;28;20438;-68
2023/05/17 11:28:06;;;;;;;3.60;2.53;;;17.20;47.40;;;;;;5096613;28;20445;-67
2023/05/17 11:30:33;;;;;;;4.50;2.13;;;17.00;48.00;;;;;;5096268;28;20481;-67
2023/05/17 11:33:02;;;;;;;3.27;1.63;;;16.70;48.50;;;;;;5096236;28;20483;-67
2023/05/17 11:35:34;;;;;;;3.07;1.90;;;16.60;48.40;;;;;;5095718;28;20905;-68
2023/05/17 11:38:16;;;;;;;3.27;1.93;;;16.50;47.90;;;;;;5096233;28;20437;-67
2023/05/17 11:40:44;;;;;;;6.40;1.87;;;16.30;49.00;;;;;;5096170;28;20757;-67
2023/05/17 11:43:15;;;;;;;5.60;2.40;;;16.10;50.00;;;;;;5095983;28;20503;-68
2023/05/17 11:45:44;;;;;;;5.20;2.63;;;15.90;49.40;;;;;;5096274;28;20443;-67
2023/05/17 11:48:12;;;;;;;3.30;2.07;;;15.80;49.50;;;;;;5096088;28;20439;-67
2023/05/17 11:50:39;;;;;;;8.70;3.40;;;15.60;50.10;;;;;;5096270;28;20771;-67
2023/05/17 11:53:07;;;;;;;4.10;1.83;;;15.40;50.90;;;;;;5095781;28;20528;-67
2023/05/17 11:55:39;;;;;;;3.90;1.87;;;15.20;52.30;;;;;;5094935;28;20439;-67
2023/05/17 11:58:08;;;;;;;5.70;2.30;;;15.10;52.00;;;;;;5095843;28;20433;-67
2023/05/17 12:00:36;;;;;;;4.63;2.10;;;15.00;52.50;;;;;;5095999;28;20443;-67
2023/05/17 12:03:20;;;;;;;4.93;2.07;;;15.00;53.60;;;;;;5095912;28;20471;-68
2023/05/17 12:05:49;;;;;;;4.83;2.30;;;15.00;52.10;;;;;;5095861;28;20435;-67
2023/05/17 12:08:18;;;;;;;4.20;2.10;;;15.00;51.80;;;;;;5095575;28;20443;-68
2023/05/17 12:10:48;;;;;;;4.40;2.30;;;15.10;52.70;;;;;;5095733;28;20917;-68
2023/05/17 12:13:16;;;;;;;5.57;2.30;;;15.10;53.00;;;;;;5095546;28;20486;-67
2023/05/17 12:15:46;;;;;;;6.77;2.33;;;15.20;52.80;;;;;;5094841;28;20553;-67
2023/05/17 12:18:13;;;;;;;5.93;2.60;;;15.30;51.30;;;;;;5095627;28;20431;-67
2023/05/17 12:20:58;;;;;;;4.37;2.40;;;15.30;51.00;;;;;;5095650;28;20586;-67
2023/05/17 12:23:29;;;;;;;3.70;2.10;;;15.40;52.00;;;;;;5094870;28;20434;-68
2023/05/17 12:26:09;;;;;;;9.80;2.03;;;15.70;51.90;;;;;;5095198;28;20496;-70
2023/05/17 12:28:37;;;;;;;4.10;1.80;;;15.80;50.00;;;;;;5095710;28;20473;-68
2023/05/17 12:31:06;;;;;;;4.50;1.90;;;15.90;49.90;;;;;;5094923;28;20439;-68
2023/05/17 12:33:37;;;;;;;4.43;1.87;;;16.10;50.50;;;;;;5095578;28;20518;-67
2023/05/17 12:36:05;;;;;;;10.43;2.10;;;16.20;50.70;;;;;;5094925;28;20442;-68
2023/05/17 12:38:33;;;;;;;2.87;2.17;;;16.40;50.30;;;;;;5095125;28;20427;-68
2023/05/17 12:41:02;;;;;;;4.80;2.13;;;16.60;49.20;;;;;;5095306;28;20435;-68
2023/05/17 12:43:32;;;;;;;3.90;2.13;;;16.70;48.90;;;;;;5094670;28;20435;-68
2023/05/17 12:46:04;;;;;;;5.03;1.77;;;16.80;50.30;;;;;;5094831;28;20978;-68
2023/05/17 12:48:32;;;;;;;5.90;2.07;;;16.90;48.50;;;;;;5095006;28;20436;-68
2023/05/17 12:51:06;;;;;;;4.33;1.63;;;16.80;48.80;;;;;;5094666;28;20436;-68
2023/05/17 12:53:37;;;;;;;2.97;1.70;;;16.80;49.20;;;;;;5094925;28;20484;-68
2023/05/17 12:56:05;;;;;;;4.10;1.70;;;16.70;48.60;;;;;;5094747;28;20471;-68